Time;durP1;ratioP1;P1;durP2;ratioP2;P2;SDS_P1;SDS_P2;PMS_P1;PMS_P2;Temp;Humidity;BMP_temperature;BMP_pressure;BME280_temperature;BME280_humidity;BME280_pressure;Samples;Min_cycle;Max_cycle;Signal;HPM_P1;HPM_P2
2022/01/26 00:00:07;;;;;;;39.63;10.93;;;;;;;6.14;100.00;101962.38;4915963;29;20067;-79
2022/01/26 00:08:01;;;;;;;48.17;11.40;;;;;;;6.22;100.00;101970.50;4917733;29;20478;-79
2022/01/26 00:10:27;;;;;;;53.33;11.05;;;;;;;6.17;100.00;101956.75;4884218;29;20043;-80
2022/01/26 00:12:52;;;;;;;51.60;10.90;;;;;;;6.13;100.00;101949.16;4900433;29;20036;-79
2022/01/26 00:15:18;;;;;;;50.60;9.32;;;;;;;6.21;100.00;101973.34;4916025;29;20055;-79
2022/01/26 00:17:43;;;;;;;61.28;11.93;;;;;;;6.23;100.00;101968.69;4900988;29;20032;-79
2022/01/26 00:20:19;;;;;;;69.75;12.20;;;;;;;5.97;100.00;101925.69;4920287;29;20120;-79
2022/01/26 00:27:52;;;;;;;57.53;10.18;;;;;;;6.20;100.00;101950.28;4919805;29;20100;-79
2022/01/26 00:41:04;;;;;;;66.00;12.38;;;;;;;5.97;100.00;101913.16;4919869;29;20028;-79
2022/01/26 00:43:29;;;;;;;57.17;10.82;;;;;;;6.11;100.00;101926.06;4903911;29;20060;-79
2022/01/26 00:45:57;;;;;;;58.33;10.10;;;;;;;6.08;100.00;101926.34;4902704;29;20064;-79
2022/01/26 00:48:24;;;;;;;53.10;10.05;;;;;;;6.11;100.00;101928.75;4904102;29;20403;-78
2022/01/26 00:50:52;;;;;;;46.75;8.95;;;;;;;6.11;100.00;101933.25;4906353;29;20370;-78
2022/01/26 00:53:26;;;;;;;43.42;7.78;;;;;;;5.93;100.00;101901.06;4923033;29;20035;-79
2022/01/26 00:55:51;;;;;;;40.05;8.27;;;;;;;6.10;100.00;101929.75;4914647;29;20470;-79
2022/01/26 00:58:17;;;;;;;44.05;8.20;;;;;;;6.11;100.00;101922.56;4888104;29;20067;-78
2022/01/26 01:00:43;;;;;;;55.55;8.65;;;;;;;6.05;100.00;101912.44;4901535;29;20020;-79
2022/01/26 01:03:08;;;;;;;31.23;6.50;;;;;;;5.98;100.00;101898.81;4920442;29;20044;-80
2022/01/26 01:05:43;;;;;;;33.40;5.90;;;;;;;5.98;100.00;101898.81;4902700;29;20035;-80
2022/01/26 01:08:14;;;;;;;39.67;6.22;;;;;;;6.02;100.00;101892.19;4888999;29;20035;-79
2022/01/26 01:10:40;;;;;;;31.33;6.05;;;;;;;6.07;100.00;101892.63;4887641;29;20021;-80
2022/01/26 01:13:13;;;;;;;28.33;5.90;;;;;;;6.04;100.00;101890.22;4902242;29;20079;-79
2022/01/26 01:15:39;;;;;;;25.95;5.57;;;;;;;5.91;100.00;101862.09;4901498;29;20024;-78
2022/01/26 01:18:21;;;;;;;35.75;6.47;;;;;;;6.06;100.00;101882.91;4917787;29;20423;-80
2022/01/26 01:23:47;;;;;;;27.48;4.45;;;;;;;6.04;100.00;101881.38;4902872;29;20536;-79
2022/01/26 01:34:15;;;;;;;22.42;5.03;;;;;;;6.01;100.00;101860.28;4918222;29;20449;-80
2022/01/26 01:36:44;;;;;;;27.88;4.63;;;;;;;5.91;100.00;101844.22;4900844;29;20039;-80
2022/01/26 01:39:10;;;;;;;21.25;3.92;;;;;;;6.04;100.00;101865.34;4901930;29;20388;-80
2022/01/26 01:41:38;;;;;;;22.38;4.43;;;;;;;5.85;100.00;101828.78;4886628;29;20024;-80
2022/01/26 01:44:05;;;;;;;20.58;4.32;;;;;;;5.91;100.00;101827.38;4917745;29;20504;-79
2022/01/26 01:46:31;;;;;;;27.50;4.63;;;;;;;5.87;100.00;101800.94;4901533;29;20048;-80
2022/01/26 01:48:56;;;;;;;21.90;4.18;;;;;;;5.95;100.00;101818.09;4917341;29;20355;-80
2022/01/26 01:51:28;;;;;;;15.25;3.72;;;;;;;5.87;100.00;101800.09;4900952;29;20036;-80
2022/01/26 01:53:53;;;;;;;32.50;5.28;;;;;;;6.00;100.00;101822.03;4901724;29;20028;-80
2022/01/26 01:56:23;;;;;;;25.45;4.50;;;;;;;5.86;100.00;101799.25;4918098;29;20473;-79
2022/01/26 01:58:48;;;;;;;24.45;3.80;;;;;;;6.09;100.00;101813.16;4887226;29;20036;-79
2022/01/26 02:01:14;;;;;;;21.73;3.97;;;;;;;6.08;100.00;101802.59;4885920;29;20477;-79
2022/01/26 02:03:39;;;;;;;26.67;4.63;;;;;;;6.12;100.00;101804.00;4900157;29;20039;-80
2022/01/26 02:06:04;;;;;;;28.38;4.70;;;;;;;6.10;100.00;101788.13;4918561;29;20046;-79
2022/01/26 02:08:30;;;;;;;31.02;5.75;;;;;;;5.94;100.00;101771.84;4917363;29;20485;-79
2022/01/26 02:10:55;;;;;;;29.85;5.25;;;;;;;5.95;100.00;101760.16;4901172;29;20036;-80
2022/01/26 02:56:08;;;;;;;31.80;6.00;;;;;;;5.91;100.00;101705.31;4902852;29;20095;-80
2022/01/26 02:58:57;;;;;;;39.60;6.90;;;;;;;5.96;100.00;101700.44;4885724;29;20115;-80
2022/01/26 03:06:37;;;;;;;32.35;6.03;;;;;;;5.83;100.00;101665.16;4916671;29;20438;-80
2022/01/26 03:09:09;;;;;;;33.33;6.05;;;;;;;5.99;100.00;101689.41;4916995;29;20024;-79
2022/01/26 03:11:37;;;;;;;29.17;4.72;;;;;;;5.70;100.00;101641.47;4917354;29;20164;-80
2022/01/26 03:14:16;;;;;;;37.75;6.80;;;;;;;6.00;100.00;101675.09;4901285;29;20060;-79
2022/01/26 03:16:47;;;;;;;32.63;6.57;;;;;;;5.94;100.00;101673.00;4900217;29;20031;-79
2022/01/26 03:19:35;;;;;;;33.17;6.80;;;;;;;5.87;100.00;101653.19;4917299;29;20048;-79
2022/01/26 03:22:17;;;;;;;29.02;6.20;;;;;;;6.00;100.00;101677.78;4886592;29;20119;-80
2022/01/26 03:30:09;;;;;;;29.02;5.88;;;;;;;6.01;100.00;101679.44;4917270;29;20446;-80
2022/01/26 03:35:15;;;;;;;31.38;6.13;;;;;;;5.99;100.00;101669.88;4900767;29;20056;-79
2022/01/26 03:37:50;;;;;;;31.25;6.13;;;;;;;6.02;100.00;101667.75;4901387;29;20058;-79
2022/01/26 03:40:16;;;;;;;;;;;;;;;5.94;100.00;101664.16;4900548;29;20020;-79
2022/01/26 03:42:41;;;;;;;25.65;4.85;;;;;;;5.88;100.00;101647.69;4901134;29;19919;-80
2022/01/26 03:45:07;;;;;;;36.92;6.60;;;;;;;5.98;100.00;101661.03;4868919;29;20035;-79
2022/01/26 03:47:32;;;;;;;38.17;7.05;;;;;;;5.59;100.00;101583.72;4915987;29;20040;-79
2022/01/26 03:49:58;;;;;;;37.25;6.50;;;;;;;5.57;100.00;101583.06;4899789;29;20040;-79
2022/01/26 03:52:23;;;;;;;34.90;6.80;;;;;;;5.71;100.00;101592.41;4884784;29;20463;-79
2022/01/26 03:54:49;;;;;;;44.60;7.35;;;;;;;5.86;100.00;101614.09;4920662;29;20035;-80
2022/01/26 03:57:14;;;;;;;29.88;5.68;;;;;;;6.06;100.00;101636.25;4887505;29;20103;-79
2022/01/26 03:59:39;;;;;;;41.42;7.70;;;;;;;5.79;100.00;101581.81;4869441;29;20035;-79
2022/01/26 04:02:05;;;;;;;39.33;7.13;;;;;;;6.05;100.00;101608.69;4869514;29;20041;-79
2022/01/26 04:04:36;;;;;;;36.95;6.95;;;;;;;5.92;100.00;101584.13;4901631;29;20473;-80
2022/01/26 04:07:02;;;;;;;36.47;7.10;;;;;;;5.96;100.00;101579.34;4886225;29;20048;-78
2022/01/26 04:09:27;;;;;;;26.52;5.82;;;;;;;5.97;100.00;101576.56;4916926;29;20028;-79
2022/01/26 04:11:53;;;;;;;39.75;6.93;;;;;;;5.92;100.00;101575.28;4888739;29;20513;-80
2022/01/26 04:14:26;;;;;;;38.10;7.75;;;;;;;5.84;100.00;101543.97;4903547;29;20032;-79
2022/01/26 04:16:52;;;;;;;47.38;7.38;;;;;;;6.02;100.00;101576.09;4889902;29;20028;-80
2022/01/26 04:19:18;;;;;;;43.22;7.90;;;;;;;5.90;100.00;101543.38;4869725;29;20057;-80
2022/01/26 04:22:13;;;;;;;34.33;7.72;;;;;;;6.02;100.00;101558.22;4885094;29;20111;-79
2022/01/26 04:24:37;;;;;;;42.42;7.88;;;;;;;5.81;100.00;101512.22;4888503;29;20037;-79
2022/01/26 04:27:49;;;;;;;39.92;7.90;;;;;;;6.06;100.00;101543.59;4908725;29;20530;-80
2022/01/26 04:29:52;;;;;;;41.30;7.57;;;;;;;5.92;100.00;101525.34;4900730;29;20559;-79
2022/01/26 04:32:18;;;;;;;46.75;8.45;;;;;;;6.07;100.00;101544.44;4902553;29;20042;-79
2022/01/26 04:34:47;;;;;;;50.20;9.18;;;;;;;6.07;100.00;101531.06;4903117;29;20032;-79
2022/01/26 04:37:32;;;;;;;48.03;8.68;;;;;;;6.06;100.00;101527.56;4902308;29;20425;-79
2022/01/26 04:40:10;;;;;;;48.30;8.15;;;;;;;6.10;100.00;101531.59;4912072;29;20024;-79
2022/01/26 04:42:49;;;;;;;47.60;8.30;;;;;;;5.95;100.00;101500.22;4924034;29;20095;-80
2022/01/26 04:45:15;;;;;;;43.08;8.48;;;;;;;6.00;100.00;101511.31;4905137;29;20413;-80
2022/01/26 04:47:40;;;;;;;50.35;8.77;;;;;;;6.09;100.00;101534.41;4919482;29;20111;-80
2022/01/26 04:50:08;;;;;;;45.05;8.60;;;;;;;6.09;100.00;101526.41;4902472;29;20033;-80
2022/01/26 04:52:34;;;;;;;36.95;6.45;;;;;;;5.57;100.00;101438.91;4902484;29;20087;-80
2022/01/26 04:54:59;;;;;;;53.80;8.60;;;;;;;5.97;100.00;101500.91;4887473;29;20032;-80
2022/01/26 04:57:35;;;;;;;41.95;7.70;;;;;;;6.19;100.00;101515.63;4902086;29;20371;-78
2022/01/26 05:00:00;;;;;;;42.65;7.65;;;;;;;6.11;100.00;101503.03;4902587;29;20024;-80
2022/01/26 05:02:25;;;;;;;43.78;8.65;;;;;;;5.97;100.00;101484.88;4902672;29;20079;-79
2022/01/26 05:04:51;;;;;;;41.08;8.02;;;;;;;6.20;100.00;101512.00;4885121;29;20032;-79
2022/01/26 05:07:16;;;;;;;44.30;8.05;;;;;;;6.07;100.00;101504.34;4887605;29;20127;-80
2022/01/26 05:09:41;;;;;;;53.50;10.02;;;;;;;6.14;100.00;101512.59;4918769;29;20497;-79
2022/01/26 05:12:07;;;;;;;47.55;8.82;;;;;;;6.18;100.00;101505.94;4902606;29;20028;-80
2022/01/26 05:14:33;;;;;;;43.88;7.43;;;;;;;6.07;100.00;101474.97;4902994;29;20028;-80
2022/01/26 05:16:58;;;;;;;47.30;8.95;;;;;;;6.17;100.00;101498.94;4902583;29;20091;-80
2022/01/26 05:19:24;;;;;;;47.80;9.70;;;;;;;6.17;100.00;101493.59;4916135;29;20071;-80
2022/01/26 05:21:49;;;;;;;53.15;10.65;;;;;;;6.08;100.00;101472.13;4902602;29;20051;-80
2022/01/26 05:24:15;;;;;;;49.65;9.35;;;;;;;6.16;100.00;101462.50;4916992;29;20059;-79
2022/01/26 05:26:40;;;;;;;54.15;9.88;;;;;;;6.26;100.00;101481.97;4870498;29;20032;-80
2022/01/26 05:29:06;;;;;;;50.22;8.82;;;;;;;6.21;100.00;101471.75;4917606;29;20023;-81
2022/01/26 05:31:32;;;;;;;51.28;9.75;;;;;;;6.26;100.00;101482.81;4916044;29;20075;-79
2022/01/26 05:33:57;;;;;;;56.80;10.25;;;;;;;6.21;100.00;101461.06;4899379;29;20028;-80
2022/01/26 05:36:23;;;;;;;58.15;10.57;;;;;;;6.26;100.00;101474.81;4899610;29;20335;-80
2022/01/26 05:38:48;;;;;;;59.22;10.02;;;;;;;6.32;100.00;101473.31;4900006;29;20123;-81
2022/01/26 05:41:14;;;;;;;51.97;10.68;;;;;;;6.28;100.00;101477.31;4899128;29;20454;-79
2022/01/26 05:43:39;;;;;;;60.53;10.43;;;;;;;6.20;100.00;101459.38;4915999;29;20057;-78
2022/01/26 05:46:11;;;;;;;48.30;8.60;;;;;;;6.21;100.00;101453.03;4915449;29;20047;-79
2022/01/26 05:48:42;;;;;;;52.88;9.25;;;;;;;6.17;100.00;101453.50;4915552;29;20112;-79
2022/01/26 05:51:09;;;;;;;71.35;10.85;;;;;;;6.32;100.00;101462.63;4914349;29;20055;-79
2022/01/26 05:53:36;;;;;;;59.78;9.73;;;;;;;6.22;100.00;101440.50;4901966;29;20032;-80
2022/01/26 05:56:02;;;;;;;63.13;10.40;;;;;;;6.36;100.00;101453.34;4916900;29;20039;-80
2022/01/26 05:58:28;;;;;;;52.05;9.27;;;;;;;6.17;100.00;101421.44;4869166;29;20035;-80
2022/01/26 06:00:54;;;;;;;55.65;9.32;;;;;;;6.34;100.00;101439.28;4913679;29;20477;-78
2022/01/26 06:03:19;;;;;;;55.20;9.10;;;;;;;6.35;100.00;101438.28;4914566;29;20091;-79
2022/01/26 06:05:45;;;;;;;52.22;8.98;;;;;;;6.27;100.00;101423.03;4899059;29;20347;-79
2022/01/26 06:08:10;;;;;;;61.95;10.35;;;;;;;6.18;100.00;101412.41;4931670;29;20110;-79
2022/01/26 06:10:35;;;;;;;66.07;9.88;;;;;;;6.27;100.00;101416.84;4903518;29;20028;-80
2022/01/26 06:13:02;;;;;;;46.25;9.23;;;;;;;6.39;100.00;101433.44;4914627;29;20055;-80
2022/01/26 06:15:28;;;;;;;67.65;11.43;;;;;;;6.36;100.00;101426.59;4916353;29;20036;-80
2022/01/26 06:17:53;;;;;;;60.83;10.55;;;;;;;6.41;100.00;101429.63;4904761;29;20378;-80
2022/01/26 06:20:19;;;;;;;65.10;11.18;;;;;;;6.40;100.00;101432.47;4894760;29;20036;-80
2022/01/26 06:22:44;;;;;;;46.53;10.00;;;;;;;6.38;100.00;101437.97;4901960;29;20114;-80
2022/01/26 06:25:10;;;;;;;54.80;9.50;;;;;;;6.26;100.00;101410.66;4898926;29;20040;-80
2022/01/26 06:27:37;;;;;;;56.72;9.68;;;;;;;6.29;100.00;101412.16;4915623;29;20454;-80
2022/01/26 06:30:04;;;;;;;58.53;11.82;;;;;;;6.40;100.00;101437.81;4915879;29;20035;-80
2022/01/26 06:32:30;;;;;;;68.20;11.80;;;;;;;6.41;100.00;101434.97;4914641;29;20044;-79
2022/01/26 06:34:56;;;;;;;60.80;10.30;;;;;;;6.32;100.00;101414.53;4915445;29;20038;-78
2022/01/26 06:37:22;;;;;;;55.40;10.65;;;;;;;6.39;100.00;101426.28;4916509;29;20034;-79
2022/01/26 06:39:47;;;;;;;58.83;11.25;;;;;;;6.36;100.00;101410.56;4907176;29;20032;-79
2022/01/26 06:42:16;;;;;;;64.30;11.25;;;;;;;6.44;100.00;101421.28;4918801;29;20036;-79
2022/01/26 06:45:17;;;;;;;46.63;9.18;;;;;;;6.47;100.00;101423.66;4925331;29;20031;-78
2022/01/26 06:50:18;;;;;;;56.60;9.43;;;;;;;6.43;100.00;101410.78;4918694;29;20039;-79
2022/01/26 06:52:46;;;;;;;59.05;10.25;;;;;;;6.34;100.00;101399.19;4901453;29;20126;-79
2022/01/26 06:55:12;;;;;;;53.25;10.10;;;;;;;6.42;100.00;101404.56;4918441;29;20059;-79
2022/01/26 06:57:38;;;;;;;54.25;10.52;;;;;;;6.28;100.00;101381.94;4913809;29;20114;-78
2022/01/26 07:00:04;;;;;;;53.72;10.30;;;;;;;6.39;100.00;101404.91;4901265;29;20500;-78
2022/01/26 07:02:30;;;;;;;51.67;9.27;;;;;;;6.35;100.00;101393.66;4900365;29;20052;-79
2022/01/26 07:04:55;;;;;;;53.30;8.77;;;;;;;6.37;100.00;101385.50;4883986;29;20063;-79
2022/01/26 07:07:20;;;;;;;57.63;11.13;;;;;;;6.40;100.00;101403.91;4916330;29;20072;-80
2022/01/26 07:09:46;;;;;;;54.67;9.25;;;;;;;6.42;100.00;101393.88;4915911;29;20039;-79
2022/01/26 07:12:12;;;;;;;49.75;10.23;;;;;;;6.33;100.00;101378.81;4900402;29;20054;-78
2022/01/26 07:22:50;;;;;;;59.70;9.52;;;;;;;6.37;100.00;101390.00;4914262;29;20113;-79
2022/01/26 07:25:15;;;;;;;47.92;8.98;;;;;;;6.42;100.00;101393.88;4913606;29;20116;-78
2022/01/26 07:27:42;;;;;;;50.67;8.73;;;;;;;6.44;100.00;101393.72;4902814;29;20036;-78
2022/01/26 07:30:08;;;;;;;55.85;9.43;;;;;;;6.38;100.00;101359.59;4897944;29;20036;-78
2022/01/26 07:32:36;;;;;;;44.17;8.38;;;;;;;6.45;100.00;101363.31;4917633;29;20024;-78
2022/01/26 07:35:02;;;;;;;47.15;8.95;;;;;;;6.43;100.00;101365.31;4935488;29;20064;-78
2022/01/26 07:37:27;;;;;;;48.78;8.55;;;;;;;6.37;100.00;101347.25;4924022;29;20406;-78
2022/01/26 07:40:04;;;;;;;44.65;8.00;;;;;;;6.44;100.00;101343.78;4900467;29;20056;-78
2022/01/26 07:42:31;;;;;;;47.22;8.35;;;;;;;6.43;100.00;101326.06;4887634;29;20474;-79
2022/01/26 07:44:56;;;;;;;47.38;8.45;;;;;;;6.45;100.00;101334.75;4917162;29;20083;-78
2022/01/26 07:47:23;;;;;;;44.17;7.63;;;;;;;6.43;100.00;101336.75;4917884;29;20055;-78
2022/01/26 07:49:49;;;;;;;44.53;7.80;;;;;;;6.41;100.00;101338.75;4917514;29;20047;-78
2022/01/26 07:52:15;;;;;;;47.97;9.45;;;;;;;6.34;100.00;101313.66;4916568;29;20036;-78
2022/01/26 07:54:40;;;;;;;44.80;8.68;;;;;;;6.46;100.00;101323.06;4917160;29;20381;-78
2022/01/26 07:57:09;;;;;;;53.15;9.45;;;;;;;6.38;100.00;101316.84;4915979;29;20039;-78
2022/01/26 07:59:35;;;;;;;42.35;8.25;;;;;;;6.34;100.00;101305.63;4900406;29;20062;-78
2022/01/26 08:02:00;;;;;;;44.72;8.20;;;;;;;6.39;100.00;101310.47;4897943;29;20443;-77
2022/01/26 08:04:25;;;;;;;48.28;8.18;;;;;;;6.45;100.00;101324.06;4884287;29;20117;-78
2022/01/26 08:06:51;;;;;;;60.00;8.43;;;;;;;6.46;100.00;101325.75;4897567;29;20348;-79
2022/01/26 08:09:17;;;;;;;42.13;7.05;;;;;;;6.45;100.00;101321.38;4880961;29;20024;-78
2022/01/26 08:11:42;;;;;;;34.97;7.38;;;;;;;6.46;100.00;101315.06;4913463;29;20722;-78
2022/01/26 08:14:08;;;;;;;44.97;8.45;;;;;;;6.51;100.00;101307.38;4865264;29;20032;-78
2022/01/26 08:16:34;;;;;;;46.58;8.20;;;;;;;6.33;100.00;101271.88;4897864;29;20111;-78
2022/01/26 08:19:00;;;;;;;33.60;6.75;;;;;;;6.43;100.00;101307.34;4909726;29;20083;-78
2022/01/26 08:21:25;;;;;;;29.33;6.35;;;;;;;6.24;100.00;101257.63;4913248;29;20469;-78
2022/01/26 08:23:50;;;;;;;45.65;7.22;;;;;;;6.62;100.00;101305.41;4914051;29;20043;-78
2022/01/26 08:26:21;;;;;;;32.58;6.18;;;;;;;6.54;100.00;101292.84;4896781;29;20099;-78
2022/01/26 08:28:52;;;;;;;41.22;7.25;;;;;;;6.62;100.00;101292.03;4896617;29;20068;-78
2022/01/26 08:31:18;;;;;;;43.75;7.35;;;;;;;6.76;100.00;101302.16;4882085;29;20092;-78
2022/01/26 08:33:43;;;;;;;50.67;7.47;;;;;;;6.81;100.00;101287.25;4881185;29;20032;-78
2022/01/26 08:36:09;;;;;;;39.63;6.85;;;;;;;6.77;100.00;101280.56;4883044;29;20028;-78
2022/01/26 08:38:35;;;;;;;40.40;6.68;;;;;;;6.77;100.00;101277.91;4880734;29;20331;-78
2022/01/26 08:41:01;;;;;;;31.50;4.45;;;;;;;6.85;100.00;101270.88;4890568;29;20012;-78
2022/01/26 08:43:26;;;;;;;40.40;7.25;;;;;;;6.88;100.00;101249.16;4917035;29;20036;-77
2022/01/26 08:45:51;;;;;;;37.28;6.50;;;;;;;6.84;100.00;101248.66;4916858;29;20123;-78
2022/01/26 08:48:17;;;;;;;29.00;5.93;;;;;;;6.81;100.00;101244.47;4868941;29;20042;-78
2022/01/26 08:50:42;;;;;;;39.20;7.18;;;;;;;6.77;100.00;101226.25;4916235;29;20031;-78
2022/01/26 08:53:08;;;;;;;32.97;6.40;;;;;;;6.82;100.00;101230.13;4899396;29;20055;-78
2022/01/26 08:55:35;;;;;;;33.13;7.07;;;;;;;6.74;100.00;101237.28;4899399;29;20374;-78
2022/01/26 08:58:00;;;;;;;31.02;5.15;;;;;;;6.72;100.00;101223.22;4899493;29;20081;-78
2022/01/26 09:00:26;;;;;;;32.75;5.28;;;;;;;6.72;100.00;101232.09;4901666;29;20552;-78
2022/01/26 09:02:53;;;;;;;46.40;6.22;;;;;;;6.67;100.00;101198.81;4899983;29;20043;-77
2022/01/26 09:05:18;;;;;;;30.48;5.88;;;;;;;6.64;100.00;101223.22;4869262;29;20028;-78
2022/01/26 09:07:45;;;;;;;46.92;8.07;;;;;;;6.50;100.00;101204.13;4915596;29;20020;-78
2022/01/26 09:10:11;;;;;;;51.13;8.25;;;;;;;6.70;100.00;101209.19;4897289;29;20038;-78
2022/01/26 09:12:40;;;;;;;42.78;7.07;;;;;;;6.67;100.00;101206.84;4899738;29;20119;-78
2022/01/26 09:15:07;;;;;;;29.17;4.65;;;;;;;6.68;100.00;101184.44;4899450;29;20456;-78
2022/01/26 09:17:34;;;;;;;38.90;6.43;;;;;;;6.80;100.00;101183.13;4900213;29;20217;-78
2022/01/26 09:20:03;;;;;;;35.35;6.43;;;;;;;6.71;100.00;101157.38;4899306;29;20155;-79
2022/01/26 09:22:28;;;;;;;49.40;7.88;;;;;;;6.88;100.00;101177.78;4901666;29;20111;-78
2022/01/26 09:24:53;;;;;;;54.15;7.25;;;;;;;6.90;100.00;101182.97;4899354;29;20462;-78
2022/01/26 09:27:19;;;;;;;50.50;6.80;;;;;;;6.87;100.00;101183.31;4916466;29;20044;-78
2022/01/26 09:29:46;;;;;;;47.40;7.95;;;;;;;6.92;100.00;101189.84;4900304;29;20036;-78
2022/01/26 09:32:13;;;;;;;47.72;7.30;;;;;;;6.85;100.00;101178.09;4898661;29;20084;-78
2022/01/26 09:34:39;;;;;;;55.15;8.57;;;;;;;6.85;100.00;101174.59;4916482;29;20425;-78
2022/01/26 09:37:06;;;;;;;51.25;7.82;;;;;;;6.78;100.00;101169.91;4883789;29;20029;-78
2022/01/26 09:39:32;;;;;;;51.80;7.85;;;;;;;6.76;100.00;101158.56;4914530;29;20039;-79
2022/01/26 09:41:58;;;;;;;42.15;7.25;;;;;;;6.76;100.00;101171.09;4916271;29;20020;-78
2022/01/26 09:44:24;;;;;;;45.90;6.30;;;;;;;6.76;100.00;101155.88;4900342;29;20015;-78
2022/01/26 09:46:49;;;;;;;50.50;7.80;;;;;;;6.72;100.00;101145.66;4916636;29;20024;-78
2022/01/26 09:49:19;;;;;;;54.25;7.32;;;;;;;6.85;100.00;101169.25;4915197;29;20478;-79
2022/01/26 09:51:49;;;;;;;31.63;6.18;;;;;;;6.80;100.00;101151.03;4914312;29;20038;-78
2022/01/26 09:54:18;;;;;;;36.60;6.13;;;;;;;6.83;100.00;101146.19;4915677;29;20028;-79
2022/01/26 09:56:46;;;;;;;59.03;6.97;;;;;;;6.93;100.00;101146.03;4916499;29;20023;-79
2022/01/26 09:59:12;;;;;;;36.63;5.82;;;;;;;6.77;100.00;101104.06;4899875;29;20039;-78
2022/01/26 10:01:47;;;;;;;46.47;6.53;;;;;;;6.96;100.00;101142.19;4898636;29;20115;-78
2022/01/26 10:04:31;;;;;;;41.83;7.03;;;;;;;6.91;100.00;101117.75;4915569;29;20032;-78
2022/01/26 10:07:10;;;;;;;45.58;6.97;;;;;;;6.95;100.00;101103.03;4913057;29;20032;-78
2022/01/26 10:17:42;;;;;;;41.67;7.57;;;;;;;7.00;100.00;101130.97;4917204;29;20051;-78
2022/01/26 10:20:17;;;;;;;41.15;6.65;;;;;;;6.88;100.00;101120.75;4916977;29;20044;-77
2022/01/26 10:22:43;;;;;;;39.72;7.13;;;;;;;7.01;100.00;101121.94;4916486;29;20350;-79
2022/01/26 10:25:19;;;;;;;44.28;8.30;;;;;;;7.05;100.00;101142.03;4897142;29;20032;-78
2022/01/26 10:27:49;;;;;;;41.63;7.85;;;;;;;6.90;100.00;101114.25;4913834;29;20028;-79
2022/01/26 10:30:17;;;;;;;52.45;8.02;;;;;;;6.95;100.00;101148.50;4915229;29;20424;-78
2022/01/26 10:32:46;;;;;;;39.03;6.03;;;;;;;6.88;100.00;101147.50;4914823;29;20024;-78
2022/01/26 10:35:16;;;;;;;50.22;8.45;;;;;;;6.77;100.00;101156.72;4883419;29;20032;-79
2022/01/26 10:37:58;;;;;;;46.30;6.80;;;;;;;6.71;100.00;101149.34;4898323;29;20036;-79
2022/01/26 10:40:26;;;;;;;48.30;8.70;;;;;;;6.65;100.00;101156.19;4895840;29;20028;-78
2022/01/26 10:43:11;;;;;;;48.08;7.57;;;;;;;6.56;100.00;101159.88;4917279;29;20114;-78
2022/01/26 10:45:45;;;;;;;50.90;10.02;;;;;;;6.61;100.00;101170.06;4901422;29;20039;-79
2022/01/26 10:53:40;;;;;;;52.70;7.78;;;;;;;6.61;100.00;101172.72;4897531;29;20098;-78
2022/01/26 10:56:06;;;;;;;45.72;7.22;;;;;;;6.66;100.00;101163.22;4899555;29;20430;-78
2022/01/26 10:58:32;;;;;;;43.85;7.13;;;;;;;6.78;99.68;101174.41;4882907;29;20043;-78
2022/01/26 11:00:58;;;;;;;32.75;6.03;;;;;;;6.73;99.23;101171.41;4898419;29;20285;-78
2022/01/26 11:03:24;;;;;;;41.25;7.05;;;;;;;6.83;99.47;101182.81;4910964;29;20035;-78
2022/01/26 11:05:50;;;;;;;49.90;5.90;;;;;;;6.82;99.18;101192.66;4925350;29;20055;-80
2022/01/26 11:08:16;;;;;;;44.58;7.22;;;;;;;6.80;98.95;101180.44;4933105;29;20110;-79
2022/01/26 11:10:45;;;;;;;43.22;6.32;;;;;;;6.74;98.34;101181.94;4903813;29;20032;-77
2022/01/26 11:13:11;;;;;;;41.13;7.55;;;;;;;6.75;98.13;101186.28;4918838;29;20449;-77
2022/01/26 11:15:38;;;;;;;36.45;7.22;;;;;;;6.74;97.68;101183.78;4920463;29;20115;-76
2022/01/26 11:18:07;;;;;;;50.03;8.07;;;;;;;6.72;97.67;101164.38;4888713;29;20060;-76
2022/01/26 11:20:50;;;;;;;38.67;5.88;;;;;;;6.73;96.57;101166.91;4918573;29;20107;-77
2022/01/26 11:23:36;;;;;;;36.42;6.35;;;;;;;6.68;95.82;101169.22;4918960;29;20032;-77
2022/01/26 11:26:02;;;;;;;26.13;4.72;;;;;;;6.74;95.30;101163.22;4900955;29;20397;-77
2022/01/26 11:28:29;;;;;;;26.00;5.05;;;;;;;6.80;95.06;101161.72;4900876;29;20632;-78
2022/01/26 11:30:59;;;;;;;34.47;6.72;;;;;;;6.80;94.77;101165.25;4898982;29;20051;-78
2022/01/26 11:33:28;;;;;;;44.78;6.47;;;;;;;6.81;94.58;101176.78;4917621;29;20055;-77
2022/01/26 11:35:55;;;;;;;37.28;5.70;;;;;;;6.80;94.70;101167.09;4916664;29;20032;-78
2022/01/26 11:46:36;;;;;;;36.25;6.32;;;;;;;6.62;94.54;101153.00;4911914;29;20043;-81
2022/01/26 11:49:10;;;;;;;37.47;6.72;;;;;;;6.64;94.77;101149.16;4912615;29;20056;-77
2022/01/26 11:51:40;;;;;;;38.42;6.80;;;;;;;6.68;95.08;101163.03;4913094;29;20016;-78
2022/01/26 11:54:26;;;;;;;37.60;7.50;;;;;;;6.68;95.92;101163.88;4896181;29;20358;-80
2022/01/26 11:57:15;;;;;;;42.00;7.00;;;;;;;6.72;95.92;101162.56;4912925;29;20059;-79
2022/01/26 11:59:47;;;;;;;47.25;7.32;;;;;;;6.65;96.06;101158.84;4895189;29;20044;-80
2022/01/26 12:02:59;;;;;;;42.42;6.32;;;;;;;6.64;96.21;101164.38;4909818;29;20073;-78
2022/01/26 12:05:25;;;;;;;47.60;7.20;;;;;;;6.53;96.80;101115.56;4912995;29;20071;-81
2022/01/26 12:07:56;;;;;;;38.22;6.07;;;;;;;6.55;96.06;101150.97;4895123;29;20040;-78
2022/01/26 12:10:28;;;;;;;31.42;5.70;;;;;;;6.52;96.71;101131.75;4897858;29;20510;-77
2022/01/26 12:13:09;;;;;;;37.83;7.90;;;;;;;6.55;96.26;101132.25;4897276;29;20032;-78
2022/01/26 12:16:01;;;;;;;25.30;4.93;;;;;;;6.55;96.47;101140.28;4917286;29;20038;-77
2022/01/26 12:32:15;;;;;;;53.67;7.55;;;;;;;6.57;96.06;101151.66;4905464;29;20442;-77
2022/01/26 12:35:03;;;;;;;37.33;5.90;;;;;;;6.53;96.82;101150.31;4901173;29;20050;-77
2022/01/26 12:37:41;;;;;;;48.92;6.35;;;;;;;6.43;97.14;101146.97;4901585;29;20024;-77
2022/01/26 12:43:02;;;;;;;45.23;7.20;;;;;;;6.46;97.15;101154.66;4916374;29;20043;-77
2022/01/26 12:45:29;;;;;;;44.85;6.95;;;;;;;6.48;96.89;101163.34;4889516;29;21128;-79
2022/01/26 12:47:56;;;;;;;31.50;5.03;;;;;;;6.52;96.31;101159.34;4917096;29;20037;-79
2022/01/26 12:50:23;;;;;;;30.63;4.93;;;;;;;6.46;95.96;101154.66;4899675;29;20036;-80
2022/01/26 12:52:51;;;;;;;33.55;4.40;;;;;;;6.39;94.81;101129.59;4899802;29;20039;-80
2022/01/26 12:55:22;;;;;;;36.17;5.50;;;;;;;6.41;94.92;101130.25;4916046;29;20035;-77
2022/01/26 12:57:47;;;;;;;55.65;7.75;;;;;;;6.52;94.32;101137.97;4915241;29;20140;-78
2022/01/26 13:00:13;;;;;;;37.92;5.65;;;;;;;6.46;94.69;101119.91;4870468;29;20115;-76
2022/01/26 13:02:38;;;;;;;38.78;6.20;;;;;;;6.52;95.63;101115.72;4900494;29;20070;-77
2022/01/26 13:05:04;;;;;;;44.65;7.55;;;;;;;6.47;96.48;101124.25;4917191;29;20024;-77
2022/01/26 13:07:30;;;;;;;46.08;6.40;;;;;;;6.39;96.55;101126.91;4899748;29;20455;-76
2022/01/26 13:09:56;;;;;;;54.65;7.85;;;;;;;6.24;96.92;101104.50;4916090;29;20035;-77
2022/01/26 13:12:32;;;;;;;36.70;6.95;;;;;;;6.36;96.61;101137.94;4888057;29;20040;-77
2022/01/26 13:15:05;;;;;;;35.45;6.13;;;;;;;6.25;96.26;101127.53;4915744;29;20059;-77
2022/01/26 13:17:37;;;;;;;36.17;5.85;;;;;;;6.41;96.16;101151.63;4899997;29;20095;-77
2022/01/26 13:22:58;;;;;;;38.78;6.75;;;;;;;6.30;96.18;101146.59;4913762;29;20036;-77
2022/01/26 13:39:06;;;;;;;51.08;7.75;;;;;;;6.22;96.99;101135.88;4899406;29;20091;-77
2022/01/26 13:49:56;;;;;;;39.08;6.93;;;;;;;6.21;98.51;101148.41;4918406;29;20098;-77
2022/01/26 14:00:09;;;;;;;49.87;7.33;;;;;;;6.11;99.50;101143.19;4904443;29;20075;-77
2022/01/26 14:02:36;;;;;;;48.42;7.25;;;;;;;6.10;99.41;101127.34;4919575;29;20069;-78
2022/01/26 14:05:03;;;;;;;34.05;5.25;;;;;;;6.10;99.75;101130.84;4899390;29;20044;-77
2022/01/26 14:07:28;;;;;;;48.58;7.28;;;;;;;6.07;99.35;101130.31;4914265;29;20032;-77
2022/01/26 14:09:54;;;;;;;52.28;7.93;;;;;;;6.09;99.57;101137.19;4880360;29;20050;-77
2022/01/26 14:12:24;;;;;;;37.83;5.43;;;;;;;5.95;99.46;101103.06;4915083;29;20027;-78